createdAt,value
2022-10-23T00:01:46.225Z,89.00
2022-10-23T00:04:17.582Z,88.90
2022-10-23T00:06:46.254Z,89.10
2022-10-23T00:09:19.577Z,89.00
2022-10-23T00:11:50.016Z,89.20
2022-10-23T00:14:20.569Z,89.10
2022-10-23T00:16:48.862Z,89.10
2022-10-23T00:19:17.442Z,89.20
2022-10-23T00:21:45.755Z,89.30
2022-10-23T00:24:14.053Z,89.30
2022-10-23T00:26:44.215Z,89.30
2022-10-23T00:29:13.069Z,89.40
2022-10-23T00:31:41.381Z,89.40
2022-10-23T00:34:11.088Z,89.60
2022-10-23T00:36:40.630Z,89.60
2022-10-23T00:39:08.883Z,89.60
2022-10-23T00:41:37.101Z,89.60
2022-10-23T00:44:11.175Z,89.60
2022-10-23T00:46:41.452Z,89.60
2022-10-23T00:49:13.808Z,89.60
2022-10-23T00:51:45.594Z,89.60
2022-10-23T00:54:30.690Z,89.60
2022-10-23T00:57:04.396Z,89.70
2022-10-23T00:59:35.102Z,89.70
2022-10-23T01:02:03.481Z,89.70
2022-10-23T01:04:32.338Z,89.80
2022-10-23T01:07:09.274Z,89.90
2022-10-23T01:09:43.307Z,89.90
2022-10-23T01:12:20.563Z,89.90
2022-10-23T01:15:01.302Z,90.00
2022-10-23T01:17:40.870Z,90.00
2022-10-23T01:20:26.890Z,90.00
2022-10-23T01:23:16.162Z,90.00
2022-10-23T01:26:00.937Z,90.00
2022-10-23T01:28:36.034Z,90.10
2022-10-23T01:31:10.346Z,90.20
2022-10-23T01:33:44.285Z,90.30
2022-10-23T01:36:16.463Z,90.30
2022-10-23T01:38:51.677Z,90.30
2022-10-23T01:41:30.156Z,90.30
2022-10-23T01:44:07.293Z,90.30
2022-10-23T01:46:37.519Z,90.40
2022-10-23T01:49:10.628Z,90.40
2022-10-23T01:51:40.954Z,90.30
2022-10-23T01:54:12.113Z,90.30
2022-10-23T01:56:44.397Z,90.30
2022-10-23T01:59:20.224Z,90.30
2022-10-23T02:01:51.332Z,90.40
2022-10-23T02:04:31.316Z,90.30
2022-10-23T02:06:59.769Z,90.50
2022-10-23T02:09:28.258Z,90.50
2022-10-23T02:12:03.113Z,90.60
2022-10-23T02:14:46.530Z,90.50
2022-10-23T02:17:23.225Z,90.50
2022-10-23T02:20:01.777Z,90.60
2022-10-23T02:22:36.419Z,90.50
2022-10-23T02:25:13.210Z,90.60
2022-10-23T02:27:46.596Z,90.60
2022-10-23T02:30:19.517Z,90.50
2022-10-23T02:32:50.523Z,90.50
2022-10-23T02:35:23.236Z,90.50
2022-10-23T02:37:55.422Z,90.50
2022-10-23T02:40:25.364Z,90.60
2022-10-23T02:42:58.461Z,90.60
2022-10-23T02:45:35.244Z,90.60
2022-10-23T02:48:11.842Z,90.80
2022-10-23T02:50:48.607Z,90.70
2022-10-23T02:53:24.829Z,90.70
2022-10-23T02:56:03.729Z,90.70
2022-10-23T02:58:42.717Z,90.80
2022-10-23T03:01:16.794Z,90.70
2022-10-23T03:03:51.877Z,90.80
2022-10-23T03:06:20.481Z,90.80
2022-10-23T03:08:55.029Z,90.90
2022-10-23T03:11:23.232Z,91.00
2022-10-23T03:13:51.536Z,90.90
2022-10-23T03:16:21.207Z,90.90
2022-10-23T03:18:49.822Z,91.00
2022-10-23T03:21:18.052Z,91.00
2022-10-23T03:23:46.460Z,91.00
2022-10-23T03:26:14.723Z,91.00
2022-10-23T03:28:42.955Z,91.00
2022-10-23T03:31:11.205Z,91.00
2022-10-23T03:33:40.897Z,91.10
2022-10-23T03:36:10.503Z,91.10
2022-10-23T03:38:38.903Z,91.10
2022-10-23T03:41:07.405Z,91.10
2022-10-23T03:43:35.672Z,91.10
2022-10-23T03:46:09.055Z,91.10
2022-10-23T03:48:38.195Z,91.00
2022-10-23T03:51:08.391Z,91.10
2022-10-23T03:53:36.877Z,91.20
2022-10-23T03:56:06.406Z,91.20
2022-10-23T03:58:34.752Z,91.20
2022-10-23T04:01:03.185Z,91.20
2022-10-23T04:03:31.549Z,91.20
2022-10-23T04:05:59.765Z,91.30
2022-10-23T04:08:29.387Z,91.30
2022-10-23T04:10:57.847Z,91.30
2022-10-23T04:13:26.102Z,91.30
2022-10-23T04:15:54.853Z,91.30
2022-10-23T04:18:23.142Z,91.40
2022-10-23T04:20:52.971Z,91.30
2022-10-23T04:23:21.539Z,91.40
2022-10-23T04:25:51.113Z,91.40
2022-10-23T04:28:19.364Z,91.40
2022-10-23T04:30:47.621Z,91.40
2022-10-23T04:33:16.209Z,91.40
2022-10-23T04:35:44.653Z,91.30
2022-10-23T04:38:12.922Z,91.40
2022-10-23T04:40:41.193Z,91.40
2022-10-23T04:43:10.902Z,91.40
2022-10-23T04:45:39.170Z,91.40
2022-10-23T04:48:07.765Z,91.40
2022-10-23T04:50:35.997Z,91.40
2022-10-23T04:53:04.318Z,91.40
2022-10-23T04:55:32.580Z,91.40
2022-10-23T04:58:00.793Z,91.40
2022-10-23T05:00:30.606Z,91.40
2022-10-23T05:02:58.944Z,91.40
2022-10-23T05:05:27.321Z,91.50
2022-10-23T05:07:55.560Z,91.40
2022-10-23T05:10:23.789Z,91.50
2022-10-23T05:12:52.060Z,91.50
2022-10-23T05:15:20.266Z,91.50
2022-10-23T05:17:53.470Z,91.50
2022-10-23T05:20:27.189Z,91.50
2022-10-23T05:22:58.568Z,91.50
2022-10-23T05:25:27.987Z,91.50
2022-10-23T05:27:56.272Z,91.50
2022-10-23T05:30:24.479Z,91.50
2022-10-23T05:32:54.148Z,91.50
2022-10-23T05:35:24.647Z,91.50
2022-10-23T05:37:55.408Z,91.40
2022-10-23T05:40:23.963Z,91.40
2022-10-23T05:42:52.283Z,91.30
2022-10-23T05:45:20.628Z,91.30
2022-10-23T05:47:49.237Z,91.40
2022-10-23T05:50:19.168Z,91.40
2022-10-23T05:52:49.144Z,91.30
2022-10-23T05:55:18.322Z,91.30
2022-10-23T05:57:46.639Z,91.30
2022-10-23T06:00:15.437Z,91.30
2022-10-23T06:02:43.793Z,91.20
2022-10-23T06:05:12.109Z,91.20
2022-10-23T06:07:42.255Z,91.10
2022-10-23T06:10:10.992Z,91.10
2022-10-23T06:12:39.222Z,91.10
2022-10-23T06:15:10.352Z,91.10
2022-10-23T06:17:39.525Z,91.10
2022-10-23T06:20:09.865Z,91.10
2022-10-23T06:22:38.153Z,91.10
2022-10-23T06:25:09.915Z,91.10
2022-10-23T06:27:38.156Z,91.10
2022-10-23T06:30:08.155Z,91.10
2022-10-23T06:32:36.439Z,91.20
2022-10-23T06:35:05.273Z,91.10
2022-10-23T06:37:35.505Z,91.10
2022-10-23T06:40:03.757Z,91.10
2022-10-23T06:42:33.343Z,91.20
2022-10-23T06:45:04.868Z,91.20
2022-10-23T06:47:35.532Z,91.20
2022-10-23T06:50:03.877Z,91.10
2022-10-23T06:52:46.561Z,91.10
2022-10-23T06:55:15.667Z,91.10
2022-10-23T06:57:45.847Z,91.10
2022-10-23T07:00:15.133Z,91.00
2022-10-23T07:02:43.662Z,91.00
2022-10-23T07:05:13.737Z,91.00
2022-10-23T07:07:42.260Z,91.00
2022-10-23T07:10:11.061Z,91.00
2022-10-23T07:12:39.335Z,90.90
2022-10-23T07:15:10.682Z,90.80
2022-10-23T07:17:38.897Z,90.80
2022-10-23T07:20:07.958Z,90.80
2022-10-23T07:22:36.231Z,90.70
2022-10-23T07:25:04.863Z,90.70
2022-10-23T07:27:33.134Z,90.70
2022-10-23T07:30:01.365Z,90.60
2022-10-23T07:32:31.069Z,90.50
2022-10-23T07:34:59.323Z,90.40
2022-10-23T07:37:27.569Z,90.40
2022-10-23T07:39:55.790Z,90.30
2022-10-23T07:42:24.096Z,90.30
2022-10-23T07:44:52.335Z,90.20
2022-10-23T07:47:20.542Z,90.10
2022-10-23T07:49:50.586Z,90.00
2022-10-23T07:52:18.891Z,90.00
2022-10-23T07:54:47.145Z,89.90
2022-10-23T07:57:15.461Z,89.80
2022-10-23T07:59:43.719Z,89.80
2022-10-23T08:02:13.639Z,89.60
2022-10-23T08:04:42.233Z,89.50
2022-10-23T08:07:11.852Z,89.50
2022-10-23T08:09:40.119Z,89.30
2022-10-23T08:12:08.790Z,89.20
2022-10-23T08:14:37.069Z,88.90
2022-10-23T08:17:09.510Z,88.90
2022-10-23T08:19:38.179Z,88.80
2022-10-23T08:22:06.429Z,88.60
2022-10-23T08:24:36.067Z,88.40
2022-10-23T08:27:04.391Z,88.40
2022-10-23T08:29:32.657Z,88.50
2022-10-23T08:32:00.976Z,88.20
2022-10-23T08:34:29.398Z,88.00
2022-10-23T08:36:57.676Z,88.10
2022-10-23T08:39:25.896Z,88.10
2022-10-23T08:41:55.685Z,87.90
2022-10-23T08:44:30.551Z,88.10
2022-10-23T08:47:07.170Z,88.00
2022-10-23T08:49:45.269Z,87.40
2022-10-23T08:52:21.836Z,87.50
2022-10-23T08:55:06.323Z,87.60
2022-10-23T08:57:44.356Z,87.10
2022-10-23T09:00:16.687Z,86.90
2022-10-23T09:02:48.708Z,86.70
2022-10-23T09:05:22.973Z,86.80
2022-10-23T09:08:16.774Z,86.60
2022-10-23T09:11:00.846Z,86.50
2022-10-23T09:14:11.282Z,86.70
2022-10-23T09:16:53.521Z,86.60
2022-10-23T09:19:27.106Z,86.20
2022-10-23T09:21:56.826Z,85.90
2022-10-23T09:24:28.486Z,86.60
2022-10-23T09:26:56.750Z,86.40
2022-10-23T09:29:30.615Z,86.00
2022-10-23T09:32:01.205Z,85.90
2022-10-23T09:34:31.481Z,85.40
2022-10-23T09:37:01.806Z,85.50
2022-10-23T09:39:32.913Z,85.60
2022-10-23T09:42:02.731Z,85.30
2022-10-23T09:44:34.261Z,85.10
2022-10-23T09:47:12.091Z,85.40
2022-10-23T09:49:48.308Z,85.00
2022-10-23T09:52:31.472Z,85.10
2022-10-23T09:55:04.019Z,85.30
2022-10-23T09:57:38.133Z,85.10
2022-10-23T10:00:18.925Z,85.10
2022-10-23T10:02:59.205Z,84.90
2022-10-23T10:05:30.606Z,84.90
2022-10-23T10:08:05.255Z,84.70
2022-10-23T10:10:41.214Z,85.00
2022-10-23T10:13:32.251Z,84.60
2022-10-23T10:16:08.232Z,84.50
2022-10-23T10:18:43.169Z,84.80
2022-10-23T10:21:19.979Z,84.90
2022-10-23T10:23:51.635Z,84.10
2022-10-23T10:26:34.945Z,84.10
2022-10-23T10:29:17.961Z,83.70
2022-10-23T10:32:05.990Z,84.00
2022-10-23T10:34:43.171Z,84.00
2022-10-23T10:37:25.250Z,84.10
2022-10-23T10:40:01.963Z,84.10
2022-10-23T10:42:50.578Z,84.30
2022-10-23T10:45:27.716Z,84.30
2022-10-23T10:48:28.243Z,84.00
2022-10-23T10:51:02.462Z,83.90
2022-10-23T10:53:50.622Z,83.90
2022-10-23T10:56:21.925Z,83.90
2022-10-23T10:58:56.585Z,83.80
2022-10-23T11:01:33.986Z,83.80
2022-10-23T11:04:11.505Z,83.60
2022-10-23T11:06:40.527Z,83.00
2022-10-23T11:09:20.801Z,83.10
2022-10-23T11:11:50.428Z,83.00
2022-10-23T11:14:20.955Z,83.10
2022-10-23T11:16:52.735Z,82.70
2022-10-23T11:19:27.999Z,82.50
2022-10-23T11:22:02.964Z,82.70
2022-10-23T11:25:19.421Z,82.60
2022-10-23T11:28:19.491Z,82.70
2022-10-23T11:31:12.084Z,83.00
2022-10-23T11:34:58.193Z,82.50
2022-10-23T11:37:27.898Z,82.40
2022-10-23T11:40:05.879Z,82.60
2022-10-23T11:42:48.234Z,81.90
2022-10-23T11:45:35.543Z,81.40
2022-10-23T11:48:06.214Z,81.10
2022-10-23T11:50:51.253Z,81.20
2022-10-23T11:53:40.779Z,80.50
2022-10-23T11:56:31.110Z,80.20
2022-10-23T11:59:00.205Z,79.70
2022-10-23T12:01:40.452Z,79.60
2022-10-23T12:04:23.122Z,79.80
2022-10-23T12:06:54.535Z,80.00
2022-10-23T12:09:31.911Z,79.40
2022-10-23T12:12:18.441Z,79.10
2022-10-23T12:14:49.772Z,79.00
2022-10-23T12:17:36.602Z,78.20
2022-10-23T12:20:25.843Z,78.50
2022-10-23T12:23:19.853Z,79.10
2022-10-23T12:26:08.533Z,78.50
2022-10-23T12:28:46.501Z,78.90
2022-10-23T12:31:31.565Z,78.60
2022-10-23T12:34:14.669Z,79.10
2022-10-23T12:36:56.525Z,79.10
2022-10-23T12:39:30.045Z,78.50
2022-10-23T12:42:01.543Z,78.70
2022-10-23T12:44:30.487Z,78.50
2022-10-23T12:47:00.795Z,78.90
2022-10-23T12:49:34.182Z,78.60
2022-10-23T12:52:05.851Z,78.60
2022-10-23T12:54:40.673Z,78.50
2022-10-23T12:57:23.195Z,78.30
2022-10-23T12:59:52.879Z,78.60
2022-10-23T13:02:26.303Z,78.00
2022-10-23T13:04:56.805Z,78.10
2022-10-23T13:07:28.814Z,78.10
2022-10-23T13:09:58.835Z,78.40
2022-10-23T13:12:32.442Z,77.50
2022-10-23T13:15:03.653Z,77.60
2022-10-23T13:17:38.706Z,78.00
2022-10-23T13:20:17.562Z,78.00
2022-10-23T13:22:47.659Z,77.80
2022-10-23T13:25:25.290Z,78.10
2022-10-23T13:28:14.826Z,78.10
2022-10-23T13:30:46.470Z,77.90
2022-10-23T13:33:25.096Z,77.80
2022-10-23T13:36:01.267Z,78.40
2022-10-23T13:38:31.564Z,78.80
2022-10-23T13:41:01.735Z,78.20
2022-10-23T13:43:33.220Z,78.10
2022-10-23T13:46:03.046Z,77.60
2022-10-23T13:48:31.544Z,77.80
2022-10-23T13:51:11.780Z,77.50
2022-10-23T13:53:40.080Z,77.70
2022-10-23T13:56:11.115Z,77.50
2022-10-23T13:58:41.152Z,77.20
2022-10-23T14:01:22.288Z,77.40
2022-10-23T14:03:50.808Z,77.60
2022-10-23T14:06:19.201Z,77.80
2022-10-23T14:08:47.668Z,77.30
2022-10-23T14:11:18.224Z,77.80
2022-10-23T14:13:48.125Z,77.60
2022-10-23T14:16:18.835Z,77.80
2022-10-23T14:18:47.159Z,78.00
2022-10-23T14:21:17.978Z,78.50
2022-10-23T14:23:46.281Z,78.50
2022-10-23T14:26:18.149Z,78.80
2022-10-23T14:28:47.865Z,78.60
2022-10-23T14:31:17.816Z,78.70
2022-10-23T14:33:47.394Z,78.50
2022-10-23T14:36:15.667Z,78.70
2022-10-23T14:38:44.009Z,78.50
2022-10-23T14:41:14.257Z,78.80
2022-10-23T14:43:43.035Z,79.10
2022-10-23T14:46:17.059Z,79.10
2022-10-23T14:48:47.190Z,79.00
2022-10-23T14:51:21.208Z,78.90
2022-10-23T14:53:51.430Z,78.90
2022-10-23T14:56:20.228Z,79.00
2022-10-23T14:58:48.472Z,79.10
2022-10-23T15:01:18.295Z,79.40
2022-10-23T15:03:46.631Z,79.20
2022-10-23T15:06:17.592Z,79.40
2022-10-23T15:08:46.687Z,79.30
2022-10-23T15:11:15.268Z,79.50
2022-10-23T15:13:43.604Z,79.60
2022-10-23T15:16:13.019Z,79.40
2022-10-23T15:18:42.630Z,79.60
2022-10-23T15:21:11.557Z,79.80
2022-10-23T15:23:42.063Z,79.90
2022-10-23T15:26:13.874Z,79.80
2022-10-23T15:28:42.088Z,79.80
2022-10-23T15:31:44.135Z,79.80
2022-10-23T15:34:17.745Z,80.30
2022-10-23T15:36:47.931Z,80.40
2022-10-23T15:39:18.684Z,80.40
2022-10-23T15:41:47.555Z,80.60
2022-10-23T15:44:18.739Z,80.60
2022-10-23T15:46:48.362Z,80.50
2022-10-23T15:49:18.558Z,80.60
2022-10-23T15:51:47.556Z,80.70
2022-10-23T15:54:19.248Z,80.40
2022-10-23T15:56:50.988Z,80.50
2022-10-23T15:59:21.682Z,80.70
2022-10-23T16:01:50.586Z,80.70
2022-10-23T16:04:20.386Z,80.70
2022-10-23T16:06:49.097Z,80.80
2022-10-23T16:09:17.871Z,80.90
2022-10-23T16:11:46.517Z,81.10
2022-10-23T16:14:17.216Z,81.10
2022-10-23T16:16:45.695Z,81.30
2022-10-23T16:19:14.205Z,82.40
2022-10-23T16:21:44.057Z,83.10
2022-10-23T16:24:12.691Z,83.50
2022-10-23T16:26:41.421Z,84.50
2022-10-23T16:29:11.032Z,84.80
2022-10-23T16:31:39.258Z,84.90
2022-10-23T16:34:08.190Z,85.00
2022-10-23T16:36:39.094Z,85.10
2022-10-23T16:39:09.961Z,85.30
2022-10-23T16:41:38.321Z,85.30
2022-10-23T16:44:07.009Z,85.50
2022-10-23T16:46:35.838Z,85.50
2022-10-23T16:49:04.509Z,85.50
2022-10-23T16:51:33.478Z,85.50
2022-10-23T16:54:02.312Z,85.60
2022-10-23T16:56:33.068Z,85.50
2022-10-23T16:59:01.592Z,85.50
2022-10-23T17:01:33.113Z,85.50
2022-10-23T17:04:01.864Z,85.50
2022-10-23T17:06:32.609Z,85.50
2022-10-23T17:09:02.443Z,85.60
2022-10-23T17:11:35.098Z,85.40
2022-10-23T17:14:06.826Z,85.50
2022-10-23T17:16:38.456Z,85.30
2022-10-23T17:19:16.031Z,85.30
2022-10-23T17:21:49.621Z,85.40
2022-10-23T17:24:18.411Z,85.50
2022-10-23T17:26:48.419Z,85.40
2022-10-23T17:29:18.291Z,85.50
2022-10-23T17:31:48.857Z,85.60
2022-10-23T17:34:21.099Z,85.70
2022-10-23T17:36:52.026Z,85.70
2022-10-23T17:39:22.149Z,85.70
2022-10-23T17:41:52.120Z,85.50
2022-10-23T17:44:20.477Z,85.40
2022-10-23T17:46:53.883Z,85.50
2022-10-23T17:49:23.005Z,85.40
2022-10-23T17:51:53.717Z,85.50
2022-10-23T17:54:22.804Z,85.60
2022-10-23T17:56:52.537Z,85.60
2022-10-23T17:59:20.905Z,85.70
2022-10-23T18:01:49.777Z,85.60
2022-10-23T18:04:21.039Z,85.70
2022-10-23T18:06:52.856Z,85.70
2022-10-23T18:09:23.150Z,85.70
2022-10-23T18:11:52.924Z,85.60
2022-10-23T18:14:25.149Z,85.60
2022-10-23T18:16:55.577Z,85.50
2022-10-23T18:19:23.815Z,85.30
2022-10-23T18:21:52.089Z,85.30
2022-10-23T18:24:20.729Z,85.20
2022-10-23T18:26:49.242Z,85.20
2022-10-23T18:29:19.573Z,85.10
2022-10-23T18:31:49.115Z,85.00
2022-10-23T18:34:19.971Z,85.00
2022-10-23T18:36:50.816Z,84.90
2022-10-23T18:39:22.613Z,84.80
2022-10-23T18:41:54.151Z,84.60
2022-10-23T18:44:26.945Z,84.40
2022-10-23T18:46:56.256Z,84.50
2022-10-23T18:49:25.043Z,84.50
2022-10-23T18:51:53.538Z,84.40
2022-10-23T18:54:22.769Z,84.20
2022-10-23T18:56:51.566Z,84.00
2022-10-23T18:59:23.619Z,83.70
2022-10-23T19:01:52.191Z,83.40
2022-10-23T19:04:20.615Z,83.20
2022-10-23T19:06:51.215Z,83.00
2022-10-23T19:09:20.082Z,82.70
2022-10-23T19:11:48.437Z,82.60
2022-10-23T19:14:16.737Z,82.40
2022-10-23T19:16:59.397Z,82.40
2022-10-23T19:19:31.710Z,82.20
2022-10-23T19:22:01.394Z,82.10
2022-10-23T19:24:35.349Z,82.00
2022-10-23T19:27:04.224Z,82.00
2022-10-23T19:29:33.616Z,81.80
2022-10-23T19:32:03.374Z,81.20
2022-10-23T19:34:31.628Z,81.30
2022-10-23T19:37:00.026Z,81.10
2022-10-23T19:39:28.504Z,81.10
2022-10-23T19:41:58.525Z,81.20
2022-10-23T19:44:26.886Z,80.90
2022-10-23T19:46:55.127Z,80.90
2022-10-23T19:49:24.889Z,80.90
2022-10-23T19:51:53.162Z,80.80
2022-10-23T19:54:22.125Z,81.80
2022-10-23T19:56:51.278Z,83.70
2022-10-23T19:59:19.975Z,84.60
2022-10-23T20:01:49.385Z,85.20
2022-10-23T20:04:18.814Z,85.40
2022-10-23T20:06:48.824Z,85.70
2022-10-23T20:09:17.698Z,85.90
2022-10-23T20:11:45.975Z,86.00
2022-10-23T20:14:14.960Z,85.70
2022-10-23T20:16:46.467Z,85.40
2022-10-23T20:21:51.887Z,84.80
2022-10-23T20:24:22.150Z,84.30
2022-10-23T20:26:54.150Z,83.70
2022-10-23T20:29:23.048Z,83.20
2022-10-23T20:31:51.918Z,83.00
2022-10-23T20:34:20.495Z,82.80
2022-10-23T20:36:51.449Z,82.70
2022-10-23T20:39:20.985Z,83.50
2022-10-23T20:41:49.680Z,84.30
2022-10-23T20:44:20.071Z,84.10
2022-10-23T20:46:49.526Z,84.30
2022-10-23T20:49:19.191Z,84.60
2022-10-23T20:51:55.219Z,84.60
2022-10-23T20:54:24.763Z,84.30
2022-10-23T20:56:53.193Z,84.40
2022-10-23T20:59:21.591Z,84.30
2022-10-23T21:01:53.244Z,84.30
2022-10-23T21:04:25.146Z,84.40
2022-10-23T21:07:12.878Z,84.60
2022-10-23T21:09:41.576Z,84.90
2022-10-23T21:12:10.684Z,84.90
2022-10-23T21:14:39.323Z,85.10
2022-10-23T21:17:08.631Z,85.50
2022-10-23T21:19:36.879Z,85.50
2022-10-23T21:22:06.565Z,85.50
2022-10-23T21:24:34.783Z,85.20
2022-10-23T21:27:03.077Z,85.20
2022-10-23T21:29:31.387Z,85.10
2022-10-23T21:32:02.169Z,85.30
2022-10-23T21:34:31.343Z,85.20
2022-10-23T21:37:12.359Z,85.20
2022-10-23T21:39:43.479Z,85.20
2022-10-23T21:42:12.070Z,85.00
2022-10-23T21:44:40.343Z,85.00
2022-10-23T21:47:08.683Z,85.00
2022-10-23T21:49:37.003Z,84.90
2022-10-23T21:52:06.010Z,84.80
2022-10-23T21:54:34.331Z,84.80
2022-10-23T21:57:04.286Z,84.80
2022-10-23T21:59:35.993Z,84.70
2022-10-23T22:02:05.106Z,84.60
2022-10-23T22:04:33.722Z,84.50
2022-10-23T22:07:03.039Z,84.30
2022-10-23T22:09:32.258Z,84.20
2022-10-23T22:12:00.947Z,84.20
2022-10-23T22:14:30.664Z,84.20
2022-10-23T22:16:58.955Z,84.20
2022-10-23T22:19:27.209Z,83.90
2022-10-23T22:21:55.460Z,83.80
2022-10-23T22:24:24.050Z,83.60
2022-10-23T22:26:55.416Z,83.60
2022-10-23T22:29:26.641Z,83.50
2022-10-23T22:31:56.372Z,83.30
2022-10-23T22:34:48.332Z,83.20
2022-10-23T22:37:15.607Z,83.30
2022-10-23T22:39:44.069Z,83.20
2022-10-23T22:42:12.433Z,82.90
2022-10-23T22:44:40.658Z,83.00
2022-10-23T22:47:10.300Z,83.00
2022-10-23T22:49:39.426Z,83.10
2022-10-23T22:52:07.624Z,83.10
2022-10-23T22:54:36.000Z,83.10
2022-10-23T22:57:04.298Z,83.00
2022-10-23T22:59:32.516Z,83.10
2022-10-23T23:02:00.756Z,82.90
2022-10-23T23:04:37.869Z,82.90
2022-10-23T23:07:07.638Z,82.80
2022-10-23T23:09:38.840Z,82.70
2022-10-23T23:12:08.224Z,82.80
2022-10-23T23:14:36.809Z,82.80
2022-10-23T23:17:06.272Z,82.90
2022-10-23T23:19:36.673Z,82.90
2022-10-23T23:22:05.548Z,83.00
2022-10-23T23:24:33.994Z,82.90
2022-10-23T23:27:02.335Z,83.10
2022-10-23T23:29:30.635Z,83.30
2022-10-23T23:31:58.998Z,83.40
2022-10-23T23:34:27.501Z,83.60
2022-10-23T23:36:57.093Z,83.70
2022-10-23T23:39:26.100Z,83.70
2022-10-23T23:41:54.340Z,83.70
2022-10-23T23:44:22.607Z,83.70
2022-10-23T23:46:50.882Z,83.70
2022-10-23T23:49:19.121Z,83.40
2022-10-23T23:51:47.352Z,83.30
2022-10-23T23:54:17.017Z,82.80
2022-10-23T23:56:45.250Z,82.40
2022-10-23T23:59:13.482Z,82.30
